EGLL

UTC

London Heathrow Airport

London, England, United Kingdom

TAF Report

TAF EGLL 082253Z 0900/1006 06012KT CAVOK TEMPO 0900/0908 BKN010

Issued

Jun 08 22:53 UTC

Valid From

Jun 09 00:00 UTC

Valid To

Jun 10 06:00 UTC

TAF Sections

  1. Jun 09 00:00 UTC - Jun 10 06:00 UTC

    TAF EGLL 082253Z 0900/1006 06012KT CAVOK

    Wind

    060° at 12 KTS

    Visibility

    10,000+ M

    Conditions

    • No significant weather

    Clouds

    • No significant clouds
  2. Jun 09 00:00 UTC - Jun 09 08:00 UTC

    TEMPO 0900/0908 BKN010

    Clouds

    • Broken at 1,000 ft AGL

    Ceiling

    Broken at 1,000 ft AGL